<?xml version="1.0" encoding="UTF-8" standalone="no" ?>
<gpx xmlns="http://www.topografix.com/GPX/1/1" xmlns:xsi="http://www.w3.org/2001/XMLSchema-instance" xsi:schemaLocation="http://www.topografix.com/GPX/1/1 http://www.topografix.com/GPX/1/1/gpx.xsd" version="1.1" creator="VisuGPX - https://www.visugpx.com">
  <metadata>
    <name>10641269-rando de la boissière</name>
  </metadata>
  <trk>
    <name><![CDATA[10641269-rando de la boissière]]></name>
    <trkseg>
      <trkpt lat="48.66913" lon="1.645">
        <ele>135</ele>
        <time>2019-10-22T15:42:35Z</time>
      </trkpt>
      <trkpt lat="48.66934" lon="1.64569">
        <ele>135</ele>
        <time>2019-10-22T15:43:15Z</time>
      </trkpt>
      <trkpt lat="48.66999" lon="1.64666">
        <ele>137</ele>
        <time>2019-10-22T15:44:28Z</time>
      </trkpt>
      <trkpt lat="48.67015" lon="1.64679">
        <ele>138</ele>
        <time>2019-10-22T15:44:43Z</time>
      </trkpt>
      <trkpt lat="48.67036" lon="1.64809">
        <ele>141</ele>
        <time>2019-10-22T15:45:54Z</time>
      </trkpt>
      <trkpt lat="48.67058" lon="1.64901">
        <ele>147</ele>
        <time>2019-10-22T15:46:45Z</time>
      </trkpt>
      <trkpt lat="48.67104" lon="1.65025">
        <ele>157</ele>
        <time>2019-10-22T15:48:00Z</time>
      </trkpt>
      <trkpt lat="48.67102" lon="1.65097">
        <ele>160</ele>
        <time>2019-10-22T15:48:39Z</time>
      </trkpt>
      <trkpt lat="48.67035" lon="1.65216">
        <ele>166</ele>
        <time>2019-10-22T15:50:01Z</time>
      </trkpt>
      <trkpt lat="48.66977" lon="1.6546">
        <ele>166</ele>
        <time>2019-10-22T15:52:18Z</time>
      </trkpt>
      <trkpt lat="48.6696" lon="1.65586">
        <ele>167</ele>
        <time>2019-10-22T15:53:26Z</time>
      </trkpt>
      <trkpt lat="48.66977" lon="1.65765">
        <ele>168</ele>
        <time>2019-10-22T15:55:02Z</time>
      </trkpt>
      <trkpt lat="48.67029" lon="1.65936">
        <ele>171</ele>
        <time>2019-10-22T15:56:42Z</time>
      </trkpt>
      <trkpt lat="48.67096" lon="1.66151">
        <ele>176</ele>
        <time>2019-10-22T15:58:47Z</time>
      </trkpt>
      <trkpt lat="48.6721" lon="1.66409">
        <ele>176</ele>
        <time>2019-10-22T16:01:31Z</time>
      </trkpt>
      <trkpt lat="48.6731" lon="1.66716">
        <ele>172</ele>
        <time>2019-10-22T16:04:32Z</time>
      </trkpt>
      <trkpt lat="48.67376" lon="1.66952">
        <ele>171</ele>
        <time>2019-10-22T16:06:48Z</time>
      </trkpt>
      <trkpt lat="48.67508" lon="1.67255">
        <ele>170</ele>
        <time>2019-10-22T16:10:00Z</time>
      </trkpt>
      <trkpt lat="48.67613" lon="1.67371">
        <ele>158</ele>
        <time>2019-10-22T16:11:44Z</time>
      </trkpt>
      <trkpt lat="48.67773" lon="1.67443">
        <ele>152</ele>
        <time>2019-10-22T16:13:58Z</time>
      </trkpt>
      <trkpt lat="48.67832" lon="1.6747">
        <ele>149</ele>
        <time>2019-10-22T16:14:47Z</time>
      </trkpt>
      <trkpt lat="48.67896" lon="1.67652">
        <ele>144</ele>
        <time>2019-10-22T16:16:36Z</time>
      </trkpt>
      <trkpt lat="48.68082" lon="1.67467">
        <ele>147</ele>
        <time>2019-10-22T16:19:34Z</time>
      </trkpt>
      <trkpt lat="48.68144" lon="1.67227">
        <ele>144</ele>
        <time>2019-10-22T16:21:50Z</time>
      </trkpt>
      <trkpt lat="48.68286" lon="1.66945">
        <ele>141</ele>
        <time>2019-10-22T16:24:58Z</time>
      </trkpt>
      <trkpt lat="48.6825" lon="1.66827">
        <ele>143</ele>
        <time>2019-10-22T16:26:07Z</time>
      </trkpt>
      <trkpt lat="48.68272" lon="1.66329">
        <ele>145</ele>
        <time>2019-10-22T16:30:30Z</time>
      </trkpt>
      <trkpt lat="48.68296" lon="1.66056">
        <ele>145</ele>
        <time>2019-10-22T16:32:56Z</time>
      </trkpt>
      <trkpt lat="48.68282" lon="1.65713">
        <ele>145</ele>
        <time>2019-10-22T16:35:58Z</time>
      </trkpt>
      <trkpt lat="48.68316" lon="1.65467">
        <ele>138</ele>
        <time>2019-10-22T16:38:10Z</time>
      </trkpt>
      <trkpt lat="48.68222" lon="1.6541">
        <ele>140</ele>
        <time>2019-10-22T16:39:32Z</time>
      </trkpt>
      <trkpt lat="48.68278" lon="1.6486">
        <ele>154</ele>
        <time>2019-10-22T16:44:26Z</time>
      </trkpt>
      <trkpt lat="48.68322" lon="1.64551">
        <ele>165</ele>
        <time>2019-10-22T16:47:13Z</time>
      </trkpt>
      <trkpt lat="48.68342" lon="1.64499">
        <ele>167</ele>
        <time>2019-10-22T16:47:45Z</time>
      </trkpt>
      <trkpt lat="48.68304" lon="1.64427">
        <ele>167</ele>
        <time>2019-10-22T16:48:33Z</time>
      </trkpt>
      <trkpt lat="48.68362" lon="1.64278">
        <ele>171</ele>
        <time>2019-10-22T16:50:05Z</time>
      </trkpt>
      <trkpt lat="48.68603" lon="1.6419">
        <ele>163</ele>
        <time>2019-10-22T16:53:23Z</time>
      </trkpt>
      <trkpt lat="48.68757" lon="1.64202">
        <ele>167</ele>
        <time>2019-10-22T16:55:27Z</time>
      </trkpt>
      <trkpt lat="48.69254" lon="1.64278">
        <ele>147</ele>
        <time>2019-10-22T17:02:07Z</time>
      </trkpt>
      <trkpt lat="48.69374" lon="1.64302">
        <ele>149</ele>
        <time>2019-10-22T17:03:44Z</time>
      </trkpt>
      <trkpt lat="48.69655" lon="1.6422">
        <ele>161</ele>
        <time>2019-10-22T17:07:33Z</time>
      </trkpt>
      <trkpt lat="48.69623" lon="1.6409">
        <ele>156</ele>
        <time>2019-10-22T17:08:46Z</time>
      </trkpt>
      <trkpt lat="48.69514" lon="1.63859">
        <ele>153</ele>
        <time>2019-10-22T17:11:16Z</time>
      </trkpt>
      <trkpt lat="48.69392" lon="1.63592">
        <ele>151</ele>
        <time>2019-10-22T17:14:08Z</time>
      </trkpt>
      <trkpt lat="48.69254" lon="1.63407">
        <ele>148</ele>
        <time>2019-10-22T17:16:35Z</time>
      </trkpt>
      <trkpt lat="48.6907" lon="1.63216">
        <ele>160</ele>
        <time>2019-10-22T17:19:34Z</time>
      </trkpt>
      <trkpt lat="48.68941" lon="1.6297">
        <ele>170</ele>
        <time>2019-10-22T17:22:20Z</time>
      </trkpt>
      <trkpt lat="48.68857" lon="1.62882">
        <ele>174</ele>
        <time>2019-10-22T17:23:42Z</time>
      </trkpt>
      <trkpt lat="48.68815" lon="1.62597">
        <ele>174</ele>
        <time>2019-10-22T17:26:16Z</time>
      </trkpt>
      <trkpt lat="48.68587" lon="1.62357">
        <ele>173</ele>
        <time>2019-10-22T17:29:58Z</time>
      </trkpt>
      <trkpt lat="48.68431" lon="1.62229">
        <ele>172</ele>
        <time>2019-10-22T17:32:20Z</time>
      </trkpt>
      <trkpt lat="48.68367" lon="1.62211">
        <ele>171</ele>
        <time>2019-10-22T17:33:13Z</time>
      </trkpt>
      <trkpt lat="48.68208" lon="1.62178">
        <ele>172</ele>
        <time>2019-10-22T17:35:21Z</time>
      </trkpt>
      <trkpt lat="48.6802" lon="1.62166">
        <ele>168</ele>
        <time>2019-10-22T17:37:52Z</time>
      </trkpt>
      <trkpt lat="48.67946" lon="1.62203">
        <ele>170</ele>
        <time>2019-10-22T17:38:54Z</time>
      </trkpt>
      <trkpt lat="48.6807" lon="1.62409">
        <ele>170</ele>
        <time>2019-10-22T17:41:22Z</time>
      </trkpt>
      <trkpt lat="48.67719" lon="1.62907">
        <ele>167</ele>
        <time>2019-10-22T17:47:47Z</time>
      </trkpt>
      <trkpt lat="48.6764" lon="1.63216">
        <ele>168</ele>
        <time>2019-10-22T17:50:42Z</time>
      </trkpt>
      <trkpt lat="48.6747" lon="1.63722">
        <ele>138</ele>
        <time>2019-10-22T17:55:42Z</time>
      </trkpt>
      <trkpt lat="48.67487" lon="1.64014">
        <ele>133</ele>
        <time>2019-10-22T17:58:17Z</time>
      </trkpt>
      <trkpt lat="48.67266" lon="1.64151">
        <ele>130</ele>
        <time>2019-10-22T18:01:28Z</time>
      </trkpt>
      <trkpt lat="48.67073" lon="1.64125">
        <ele>134</ele>
        <time>2019-10-22T18:04:03Z</time>
      </trkpt>
      <trkpt lat="48.67016" lon="1.64151">
        <ele>134</ele>
        <time>2019-10-22T18:04:51Z</time>
      </trkpt>
      <trkpt lat="48.66937" lon="1.64503">
        <ele>135</ele>
        <time>2019-10-22T18:08:08Z</time>
      </trkpt>
    </trkseg>
  </trk>
</gpx>